createdAt,value
2022-11-28T00:01:43.093Z,22.40
2022-11-28T00:06:49.417Z,20.40
2022-11-28T00:11:54.040Z,21.52
2022-11-28T00:16:57.420Z,21.70
2022-11-28T00:22:00.480Z,19.87
2022-11-28T00:27:05.093Z,21.10
2022-11-28T00:32:08.374Z,20.50
2022-11-28T00:37:11.504Z,21.77
2022-11-28T00:42:16.837Z,21.77
2022-11-28T00:47:19.731Z,19.38
2022-11-28T00:52:22.833Z,20.00
2022-11-28T00:57:27.507Z,19.50
2022-11-28T01:02:30.553Z,25.20
2022-11-28T01:07:34.739Z,19.77
2022-11-28T01:12:39.733Z,21.97
2022-11-28T01:17:42.766Z,20.63
2022-11-28T01:22:45.759Z,20.65
2022-11-28T01:27:50.685Z,21.23
2022-11-28T01:32:54.035Z,19.48
2022-11-28T01:37:57.356Z,21.00
2022-11-28T01:43:02.058Z,20.70
2022-11-28T01:48:05.853Z,18.80
2022-11-28T01:53:11.904Z,22.30
2022-11-28T01:58:16.907Z,24.00
2022-11-28T02:03:34.834Z,22.47
2022-11-28T02:08:38.295Z,21.38
2022-11-28T02:13:51.913Z,22.50
2022-11-28T02:19:10.406Z,24.40
2022-11-28T02:24:45.652Z,25.58
2022-11-28T02:30:15.699Z,25.10
2022-11-28T02:35:24.310Z,23.17
2022-11-28T02:40:32.048Z,24.57
2022-11-28T02:45:41.307Z,21.85
2022-11-28T02:50:54.408Z,27.75
2022-11-28T02:56:02.641Z,27.40
2022-11-28T03:01:07.746Z,24.17
2022-11-28T03:06:22.758Z,26.45
2022-11-28T03:11:37.810Z,25.73
2022-11-28T03:16:49.967Z,27.13
2022-11-28T03:22:05.295Z,25.73
2022-11-28T03:27:18.031Z,32.73
2022-11-28T03:32:25.628Z,24.80
2022-11-28T03:37:34.310Z,24.98
2022-11-28T03:42:41.512Z,29.40
2022-11-28T03:47:47.205Z,27.00
2022-11-28T03:52:55.047Z,24.75
2022-11-28T03:58:01.938Z,21.55
2022-11-28T04:03:12.455Z,23.03
2022-11-28T04:08:36.601Z,25.98
2022-11-28T04:13:51.620Z,25.50
2022-11-28T04:19:08.408Z,27.70
2022-11-28T04:24:19.400Z,24.50
2022-11-28T04:29:25.993Z,30.67
2022-11-28T04:34:31.728Z,30.00
2022-11-28T04:39:37.913Z,30.53
2022-11-28T04:44:48.397Z,25.92
2022-11-28T04:49:51.500Z,31.75
2022-11-28T04:55:04.022Z,26.97
2022-11-28T05:00:15.216Z,31.50
2022-11-28T05:05:21.453Z,25.73
2022-11-28T05:10:25.889Z,20.73
2022-11-28T05:15:28.931Z,24.33
2022-11-28T05:20:32.774Z,20.13
2022-11-28T05:25:39.683Z,28.15
2022-11-28T05:30:42.536Z,28.43
2022-11-28T05:35:45.462Z,19.33
2022-11-28T05:40:49.882Z,26.73
2022-11-28T05:45:53.081Z,25.40
2022-11-28T05:50:56.155Z,24.80
2022-11-28T05:56:00.805Z,18.90
2022-11-28T06:01:11.518Z,24.03
2022-11-28T06:06:15.613Z,25.10
2022-11-28T06:11:21.296Z,24.05
2022-11-28T06:16:26.679Z,26.20
2022-11-28T06:21:30.913Z,24.03
2022-11-28T06:26:35.269Z,22.05
2022-11-28T06:31:38.137Z,22.60
2022-11-28T06:36:41.113Z,27.20
2022-11-28T06:41:45.436Z,24.58
2022-11-28T06:46:48.631Z,20.65
2022-11-28T06:51:51.814Z,24.77
2022-11-28T06:56:56.362Z,22.10
2022-11-28T07:02:07.201Z,20.35
2022-11-28T07:07:16.125Z,24.50
2022-11-28T07:12:20.886Z,21.80
2022-11-28T07:17:25.659Z,17.92
2022-11-28T07:22:28.631Z,21.55
2022-11-28T07:27:32.852Z,19.00
2022-11-28T07:32:35.757Z,25.85
2022-11-28T07:37:38.653Z,16.33
2022-11-28T07:42:42.920Z,23.37
2022-11-28T07:47:45.822Z,23.20
2022-11-28T07:52:49.922Z,23.15
2022-11-28T07:57:59.201Z,22.27
2022-11-28T08:03:02.106Z,22.17
2022-11-28T08:08:05.350Z,19.35
2022-11-28T08:13:09.747Z,21.40
2022-11-28T08:18:13.176Z,16.30
2022-11-28T08:23:16.132Z,20.55
2022-11-28T08:28:20.411Z,17.20
2022-11-28T08:33:23.558Z,19.97
2022-11-28T08:38:26.407Z,21.47
2022-11-28T08:43:30.810Z,23.48
2022-11-28T08:48:33.725Z,22.35
2022-11-28T08:53:36.935Z,21.57
2022-11-28T08:58:41.634Z,19.33
2022-11-28T09:03:45.234Z,19.67
2022-11-28T09:08:48.870Z,24.03
2022-11-28T09:13:53.005Z,23.40
2022-11-28T09:18:57.443Z,19.80
2022-11-28T09:24:00.929Z,21.97
2022-11-28T09:29:05.027Z,21.33
2022-11-28T09:34:07.766Z,22.42
2022-11-28T09:39:10.536Z,22.25
2022-11-28T09:44:23.563Z,24.60
2022-11-28T09:49:40.734Z,21.20
2022-11-28T09:54:50.083Z,19.45
2022-11-28T09:59:54.255Z,24.30
2022-11-28T10:05:09.169Z,25.52
2022-11-28T10:10:23.432Z,20.58
2022-11-28T10:15:46.991Z,25.87
2022-11-28T10:20:55.856Z,20.53
2022-11-28T10:26:03.566Z,21.58
2022-11-28T10:31:13.469Z,25.58
2022-11-28T10:36:23.559Z,24.17
2022-11-28T10:41:32.525Z,25.33
2022-11-28T10:46:50.430Z,26.85
2022-11-28T10:52:04.006Z,26.63
2022-11-28T10:57:12.968Z,26.10
2022-11-28T11:02:22.911Z,26.38
2022-11-28T11:07:30.036Z,27.03
2022-11-28T11:12:34.777Z,27.50
2022-11-28T11:17:38.847Z,24.92
2022-11-28T11:22:54.481Z,25.33
2022-11-28T11:28:00.873Z,28.63
2022-11-28T11:33:07.662Z,26.75
2022-11-28T11:38:19.592Z,21.05
2022-11-28T11:43:28.388Z,29.33
2022-11-28T11:48:37.945Z,30.83
2022-11-28T11:53:40.755Z,21.15
2022-11-28T11:58:47.849Z,29.77
2022-11-28T12:03:58.050Z,24.47
2022-11-28T12:09:08.524Z,32.42
2022-11-28T12:14:26.919Z,26.75
2022-11-28T12:19:38.260Z,30.73
2022-11-28T12:24:51.544Z,26.20
2022-11-28T12:30:05.179Z,30.73
2022-11-28T12:35:22.644Z,24.73
2022-11-28T12:40:33.950Z,33.72
2022-11-28T12:45:45.547Z,27.98
2022-11-28T12:50:56.569Z,34.20
2022-11-28T12:56:10.563Z,34.97
2022-11-28T13:01:26.406Z,34.42
2022-11-28T13:06:41.366Z,34.60
2022-11-28T13:11:57.230Z,34.57
2022-11-28T13:17:13.515Z,34.72
2022-11-28T13:22:24.589Z,35.67
2022-11-28T13:27:36.421Z,28.70
2022-11-28T13:32:46.657Z,29.23
2022-11-28T13:43:28.565Z,43.27
2022-11-28T13:49:15.471Z,29.43
2022-11-28T13:54:52.561Z,31.10
2022-11-28T14:00:00.162Z,28.85
2022-11-28T14:05:04.787Z,35.77
2022-11-28T14:10:32.233Z,36.40
2022-11-28T14:15:45.948Z,38.58
2022-11-28T14:20:57.945Z,34.43
2022-11-28T14:26:02.746Z,37.78
2022-11-28T14:31:16.223Z,40.72
2022-11-28T14:36:29.897Z,40.97
2022-11-28T14:41:36.356Z,41.03
2022-11-28T14:47:06.776Z,41.63
2022-11-28T14:52:40.733Z,32.58
2022-11-28T14:57:55.209Z,37.93
2022-11-28T15:03:16.001Z,37.95
2022-11-28T15:08:39.293Z,40.03
2022-11-28T15:13:58.063Z,40.83
2022-11-28T15:19:06.257Z,36.85
2022-11-28T15:24:23.277Z,34.55
2022-11-28T15:29:28.437Z,37.40
2022-11-28T15:34:33.111Z,37.50
2022-11-28T15:39:41.016Z,44.30
2022-11-28T15:44:44.921Z,48.15
2022-11-28T15:49:58.856Z,44.63
2022-11-28T15:55:03.031Z,44.05
2022-11-28T16:00:07.102Z,41.60
2022-11-28T16:05:12.386Z,41.67
2022-11-28T16:10:24.870Z,42.22
2022-11-28T16:15:28.295Z,38.40
2022-11-28T16:20:36.857Z,41.07
2022-11-28T16:25:41.084Z,38.83
2022-11-28T16:30:48.513Z,40.83
2022-11-28T16:35:51.450Z,189.90
2022-11-28T16:41:00.803Z,133.23
2022-11-28T16:46:07.324Z,54.17
2022-11-28T16:51:39.821Z,34.92
2022-11-28T16:56:48.341Z,55.90
2022-11-28T17:01:54.334Z,44.13
2022-11-28T17:06:58.909Z,56.67
2022-11-28T17:12:07.598Z,40.93
2022-11-28T17:17:14.269Z,47.40
2022-11-28T17:22:19.729Z,46.25
2022-11-28T17:27:23.841Z,216.38
2022-11-28T17:32:26.655Z,139.70
2022-11-28T17:37:29.424Z,160.27
2022-11-28T17:42:33.560Z,102.53
2022-11-28T17:47:36.453Z,239.70
2022-11-28T17:52:39.221Z,57.83
2022-11-28T17:57:43.300Z,50.35
2022-11-28T18:02:46.043Z,42.87
2022-11-28T18:07:48.838Z,42.70
2022-11-28T18:12:52.962Z,40.70
2022-11-28T18:17:55.987Z,44.53
2022-11-28T18:23:00.873Z,38.70
2022-11-28T18:28:05.228Z,43.45
2022-11-28T18:33:08.007Z,38.33
2022-11-28T18:38:11.883Z,41.67
2022-11-28T18:43:16.050Z,43.40
2022-11-28T18:48:18.807Z,26.65
2022-11-28T18:53:21.540Z,33.73
2022-11-28T18:58:25.627Z,46.43
2022-11-28T19:03:28.400Z,38.40
2022-11-28T19:08:31.171Z,45.65
2022-11-28T19:13:35.287Z,35.63
2022-11-28T19:18:38.546Z,44.17
2022-11-28T19:23:42.442Z,41.17
2022-11-28T19:28:47.063Z,47.37
2022-11-28T19:34:00.438Z,42.80
2022-11-28T19:39:05.483Z,50.13
2022-11-28T19:44:10.760Z,46.57
2022-11-28T19:49:18.044Z,45.13
2022-11-28T19:54:21.115Z,48.78
2022-11-28T19:59:25.299Z,48.47
2022-11-28T20:04:28.065Z,56.77
2022-11-28T20:09:30.858Z,55.38
2022-11-28T20:14:35.066Z,45.05
2022-11-28T20:19:37.939Z,52.87
2022-11-28T20:24:40.695Z,55.65
2022-11-28T20:29:45.083Z,53.95
2022-11-28T20:34:48.005Z,52.17
2022-11-28T20:39:50.777Z,55.10
2022-11-28T20:44:54.931Z,61.83
2022-11-28T20:49:57.691Z,47.72
2022-11-28T20:55:00.474Z,60.37
2022-11-28T21:00:05.789Z,53.53
2022-11-28T21:05:09.259Z,46.38
2022-11-28T21:10:12.116Z,52.03
2022-11-28T21:15:16.395Z,65.80
2022-11-28T21:20:19.168Z,57.90
2022-11-28T21:25:22.042Z,50.80
2022-11-28T21:30:26.155Z,58.60
2022-11-28T21:35:29.027Z,63.55
2022-11-28T21:40:31.781Z,63.50
2022-11-28T21:45:36.161Z,64.63
2022-11-28T21:50:39.034Z,61.10
2022-11-28T21:55:41.817Z,59.53
2022-11-28T22:00:53.701Z,59.37
2022-11-28T22:06:01.802Z,64.30
2022-11-28T22:11:05.118Z,63.53
2022-11-28T22:16:11.658Z,61.53
2022-11-28T22:26:39.325Z,65.15
2022-11-28T22:31:44.045Z,61.75
2022-11-28T22:36:47.021Z,46.27
2022-11-28T22:41:49.765Z,67.47
2022-11-28T22:46:53.910Z,68.47
2022-11-28T22:51:56.632Z,69.13
2022-11-28T22:56:59.922Z,61.75
2022-11-28T23:02:04.175Z,50.25
2022-11-28T23:07:07.004Z,67.13
2022-11-28T23:12:09.858Z,70.27
2022-11-28T23:17:13.966Z,65.47
2022-11-28T23:22:16.698Z,66.07
2022-11-28T23:27:19.422Z,65.00
2022-11-28T23:32:23.488Z,66.30
2022-11-28T23:37:26.193Z,59.53
2022-11-28T23:42:28.932Z,65.40
2022-11-28T23:47:33.010Z,59.78
2022-11-28T23:52:35.725Z,58.50
2022-11-28T23:57:38.436Z,59.03
